Madeline — WDF2406 — position and weather

sailwx.info

Track history (hours):
 
Tides and Currents Weather Stations Pressure Air Temp Water Temp Dewpoint Dewpoint Depression Visibility Wind Speed Wind Dir Waves Ship Positions

Madeline

Owner: Enterprise Marine Services, LLC, San Antonio, TX. More information available from US FCC via Universal Licensing System and Coast Guard Vessel Documentation Center.

Last reported at 2017-Aug-20 20:30 UTC. Time now 2017-Aug-21 06:30 UTC.
Position N 29°46' W 095°04'.

; draft 3 m.

Type: Ship (hazmat cat B). MMSI: 367350460.

Date/timePositionNaut miles runAvg speedWind from/ knotsBaromVisibWave heightAir tempDewpointWater temp
2017-Aug-20 20:30N 29°46' W 095°04'2 0.1
2017-Aug-20 01:38N 29°44' W 095°03'0 1.3
2017-Aug-20 01:29N 29°44' W 095°03'2 0.1
2017-Aug-19 05:59N 29°46' W 095°05'2 4.5
2017-Aug-19 05:30N 29°44' W 095°03'3 5.5
2017-Aug-19 04:59N 29°42' W 095°01'3 6.5
2017-Aug-19 04:30N 29°40' W 094°58'4 7.7
2017-Aug-19 04:00N 29°36' W 094°57'4 7.9
2017-Aug-19 03:30N 29°33' W 094°54'  
2017-Aug-10 23:02N 29°32' W 094°54'0 6.9
2017-Aug-10 23:00N 29°32' W 094°54'3 6.8
2017-Aug-10 22:30N 29°35' W 094°56'3 6.7
2017-Aug-10 22:00N 29°38' W 094°58'4 7.0
2017-Aug-10 21:30N 29°41' W 094°59'3 6.2
2017-Aug-10 21:00N 29°44' W 095°01'  
Track history (hours):
 
Tides and Currents Weather Stations Pressure Air Temp Water Temp Dewpoint Dewpoint Depression Visibility Wind Speed Wind Dir Waves Ship Positions

Madeline

Owner: Enterprise Marine Services, LLC, San Antonio, TX. More information available from US FCC via Universal Licensing System and Coast Guard Vessel Documentation Center.

Last reported at 2017-Aug-20 20:30 UTC. Time now 2017-Aug-21 06:30 UTC.
Position N 29°46' W 095°04'.

; draft 3 m.

Type: Ship (hazmat cat B). MMSI: 367350460.

Date/timePositionNaut miles runAvg speedWind from/ knotsBaromVisibWave heightAir tempDewpointWater temp
2017-Aug-20 20:30N 29°46' W 095°04'2 0.1
2017-Aug-20 01:38N 29°44' W 095°03'0 1.3
2017-Aug-20 01:29N 29°44' W 095°03'2 0.1
2017-Aug-19 05:59N 29°46' W 095°05'2 4.5
2017-Aug-19 05:30N 29°44' W 095°03'3 5.5
2017-Aug-19 04:59N 29°42' W 095°01'3 6.5
2017-Aug-19 04:30N 29°40' W 094°58'4 7.7
2017-Aug-19 04:00N 29°36' W 094°57'4 7.9
2017-Aug-19 03:30N 29°33' W 094°54'  
2017-Aug-10 23:02N 29°32' W 094°54'0 6.9
2017-Aug-10 23:00N 29°32' W 094°54'3 6.8
2017-Aug-10 22:30N 29°35' W 094°56'3 6.7
2017-Aug-10 22:00N 29°38' W 094°58'4 7.0
2017-Aug-10 21:30N 29°41' W 094°59'3 6.2
2017-Aug-10 21:00N 29°44' W 095°01'  

Dump ship's entire track history